Time;durP1;ratioP1;P1;durP2;ratioP2;P2;SDS_P1;SDS_P2;PMS_P1;PMS_P2;Temp;Humidity;BMP_temperature;BMP_pressure;BME280_temperature;BME280_humidity;BME280_pressure;Samples;Min_cycle;Max_cycle;Signal;HPM_P1;HPM_P2
2023/10/06 00:00:26;;;;;;;16.92;8.20;;;9.60;93.40;;;;;;7377730;19;20035;-68
2023/10/06 00:02:57;;;;;;;19.23;8.95;;;9.60;95.50;;;;;;7375754;19;20017;-68
2023/10/06 00:05:29;;;;;;;14.75;8.00;;;9.50;97.20;;;;;;7375415;19;20018;-69
2023/10/06 00:08:04;;;;;;;14.50;9.13;;;9.40;97.60;;;;;;7375427;19;20011;-68
2023/10/06 00:10:35;;;;;;;15.88;9.43;;;9.40;99.90;;;;;;7378755;19;20021;-68
2023/10/06 00:13:06;;;;;;;20.55;9.98;;;9.50;99.90;;;;;;7378475;19;20011;-68
2023/10/06 00:15:38;;;;;;;15.85;10.10;;;9.60;99.90;;;;;;7377457;19;20014;-69
2023/10/06 00:18:16;;;;;;;19.52;11.15;;;9.60;99.90;;;;;;7378051;19;20069;-68
2023/10/06 00:20:48;;;;;;;19.50;11.40;;;9.70;99.90;;;;;;7372369;19;20027;-69
2023/10/06 00:23:26;;;;;;;18.25;10.82;;;9.70;99.90;;;;;;7377765;19;20034;-68
2023/10/06 00:25:58;;;;;;;22.15;12.25;;;9.70;99.90;;;;;;7374261;19;20095;-69
2023/10/06 00:28:32;;;;;;;23.25;11.65;;;9.70;99.90;;;;;;7377666;19;20026;-68
2023/10/06 00:31:08;;;;;;;20.95;12.10;;;9.70;99.90;;;;;;7375961;19;20462;-69
2023/10/06 00:33:42;;;;;;;25.23;12.57;;;9.70;99.90;;;;;;7376206;19;20078;-69
2023/10/06 00:36:14;;;;;;;20.40;11.52;;;9.70;99.90;;;;;;7372775;19;20560;-69
2023/10/06 00:38:50;;;;;;;18.63;11.65;;;9.70;99.90;;;;;;7376705;19;20018;-70
2023/10/06 00:41:21;;;;;;;21.55;11.80;;;9.70;99.90;;;;;;7376505;19;20023;-69
2023/10/06 00:43:52;;;;;;;19.00;12.10;;;9.60;99.90;;;;;;7376628;19;20030;-69
2023/10/06 00:46:22;;;;;;;16.42;11.65;;;9.60;99.90;;;;;;7374416;19;20038;-70
2023/10/06 00:48:56;;;;;;;20.63;12.35;;;9.60;99.90;;;;;;7375736;19;20017;-69
2023/10/06 00:51:29;;;;;;;19.67;12.65;;;9.50;99.90;;;;;;7376782;19;20074;-69
2023/10/06 00:54:02;;;;;;;22.17;12.02;;;9.50;99.90;;;;;;7373112;19;20083;-69
2023/10/06 00:56:34;;;;;;;18.33;12.33;;;9.50;99.90;;;;;;7373564;19;20086;-69
2023/10/06 00:59:06;;;;;;;18.75;11.48;;;9.50;99.90;;;;;;7374989;19;20014;-70
2023/10/06 01:01:36;;;;;;;22.95;12.63;;;9.40;99.90;;;;;;7375906;19;20019;-69
2023/10/06 01:04:08;;;;;;;22.35;12.52;;;9.30;99.90;;;;;;7373348;19;20036;-70
2023/10/06 01:06:41;;;;;;;18.98;12.05;;;9.40;99.90;;;;;;7374649;19;20466;-70
2023/10/06 01:09:17;;;;;;;19.63;12.43;;;9.30;99.90;;;;;;7369130;19;20027;-69
2023/10/06 01:11:49;;;;;;;21.10;11.50;;;9.40;99.90;;;;;;7374442;19;20502;-69
2023/10/06 01:14:21;;;;;;;25.15;12.93;;;9.40;99.90;;;;;;7373171;19;20482;-69
2023/10/06 01:16:54;;;;;;;19.77;12.05;;;9.40;99.90;;;;;;7372462;19;20014;-70
2023/10/06 01:19:33;;;;;;;24.35;12.35;;;9.30;99.90;;;;;;7373668;19;20019;-69
2023/10/06 01:22:20;;;;;;;20.45;12.57;;;9.40;99.90;;;;;;7373626;19;20010;-69
2023/10/06 01:24:53;;;;;;;20.65;12.85;;;9.40;99.90;;;;;;6861265;19;2004040;-69
2023/10/06 01:27:26;;;;;;;21.17;12.87;;;9.40;99.90;;;;;;7373840;19;20049;-70
2023/10/06 01:30:17;;;;;;;19.63;12.57;;;9.40;99.90;;;;;;7373236;19;20228;-69
2023/10/06 01:32:50;;;;;;;22.95;12.55;;;9.40;99.90;;;;;;7372142;19;20010;-69
2023/10/06 01:35:23;;;;;;;22.50;12.48;;;9.40;99.90;;;;;;7363783;19;20015;-69
2023/10/06 01:37:58;;;;;;;24.45;13.35;;;9.30;99.90;;;;;;7373434;19;20767;-69
2023/10/06 01:40:43;;;;;;;;;;;9.30;99.90;;;;;;7374098;19;20015;-69
2023/10/06 01:43:15;;;;;;;22.65;11.95;;;9.30;99.90;;;;;;7370570;19;19978;-69
2023/10/06 01:45:46;;;;;;;19.35;12.75;;;9.30;99.90;;;;;;7370643;19;20533;-69
2023/10/06 01:48:29;;;;;;;22.30;12.32;;;9.20;99.90;;;;;;7373137;19;20539;-69
2023/10/06 01:50:59;;;;;;;19.30;12.90;;;9.20;99.90;;;;;;7373174;19;20018;-69
2023/10/06 01:53:32;;;;;;;24.08;12.93;;;9.30;99.90;;;;;;7373563;19;20014;-69
2023/10/06 01:56:08;;;;;;;23.13;13.65;;;9.30;99.90;;;;;;7371489;19;20109;-69
2023/10/06 01:58:36;;;;;;;22.35;13.55;;;9.20;99.90;;;;;;7374829;19;20014;-69
2023/10/06 02:01:09;;;;;;;19.52;13.30;;;9.20;99.90;;;;;;7373595;19;20604;-69
2023/10/06 02:03:41;;;;;;;22.15;13.40;;;9.10;99.90;;;;;;7370699;19;20011;-69
2023/10/06 02:06:18;;;;;;;24.17;13.98;;;9.10;99.90;;;;;;7369934;19;20015;-70
2023/10/06 02:08:52;;;;;;;20.67;14.57;;;9.10;99.90;;;;;;7372726;19;20033;-69
2023/10/06 02:11:30;;;;;;;22.08;13.95;;;9.00;99.90;;;;;;7375885;19;20023;-69
2023/10/06 02:14:01;;;;;;;20.05;13.75;;;9.00;99.90;;;;;;7371525;19;20002;-69
2023/10/06 02:16:31;;;;;;;20.25;13.30;;;8.90;99.90;;;;;;7377780;19;20003;-69
2023/10/06 02:19:07;;;;;;;19.92;13.80;;;8.90;99.90;;;;;;7379042;19;20049;-69
2023/10/06 02:21:44;;;;;;;23.33;14.95;;;9.00;99.90;;;;;;7378181;19;20035;-69
2023/10/06 02:24:16;;;;;;;23.98;14.93;;;9.10;99.90;;;;;;7377252;19;20130;-69
2023/10/06 02:26:57;;;;;;;22.60;13.73;;;9.10;99.90;;;;;;7377539;19;20017;-70
2023/10/06 02:29:27;;;;;;;20.13;13.73;;;9.10;99.90;;;;;;7379622;19;20018;-69
2023/10/06 02:32:00;;;;;;;20.38;14.27;;;9.00;99.90;;;;;;7379855;19;20373;-70
2023/10/06 02:34:35;;;;;;;21.15;13.38;;;9.00;99.90;;;;;;7379219;19;20013;-70
2023/10/06 02:37:07;;;;;;;20.45;12.73;;;8.90;99.90;;;;;;7377730;19;20007;-69
2023/10/06 02:39:37;;;;;;;20.67;13.25;;;8.90;99.90;;;;;;7378993;19;20060;-69
2023/10/06 02:42:13;;;;;;;20.92;12.63;;;8.90;99.90;;;;;;7379883;19;20040;-69
2023/10/06 02:44:44;;;;;;;24.80;12.65;;;8.90;99.90;;;;;;7373648;19;20010;-69
2023/10/06 02:47:14;;;;;;;16.98;12.52;;;8.90;99.90;;;;;;7377308;19;20006;-69
2023/10/06 02:49:48;;;;;;;17.88;12.95;;;8.80;99.90;;;;;;7378826;19;20034;-70
2023/10/06 02:52:20;;;;;;;19.42;12.90;;;8.80;99.90;;;;;;7378061;19;20026;-69
2023/10/06 02:55:05;;;;;;;22.58;13.40;;;8.80;99.90;;;;;;7377109;19;20013;-69
2023/10/06 02:57:39;;;;;;;17.25;11.63;;;8.80;99.90;;;;;;7378973;19;20027;-70
2023/10/06 03:02:55;;;;;;;19.38;12.75;;;8.80;99.90;;;;;;6868094;19;2004132;-70
2023/10/06 03:05:31;;;;;;;16.40;13.18;;;8.80;99.90;;;;;;7380896;19;20019;-69
2023/10/06 03:08:08;;;;;;;19.83;12.88;;;8.80;99.90;;;;;;7379130;19;20010;-70
2023/10/06 03:10:45;;;;;;;21.75;12.77;;;8.70;99.90;;;;;;7378879;19;20039;-70
2023/10/06 03:13:24;;;;;;;18.60;13.23;;;8.60;99.90;;;;;;7371871;19;20019;-69
2023/10/06 03:15:54;;;;;;;22.13;13.52;;;8.60;99.90;;;;;;7375722;19;20139;-69
2023/10/06 03:18:25;;;;;;;21.85;13.75;;;8.60;99.90;;;;;;7377287;19;20473;-69
2023/10/06 03:21:00;;;;;;;18.33;12.80;;;8.50;99.90;;;;;;7376411;19;20039;-69
2023/10/06 03:23:36;;;;;;;17.00;13.25;;;8.50;99.90;;;;;;7377865;19;20055;-69
2023/10/06 03:26:12;;;;;;;22.38;14.40;;;8.50;99.90;;;;;;7374367;19;20011;-69
2023/10/06 03:28:49;;;;;;;18.85;13.40;;;8.50;99.90;;;;;;7375724;19;20014;-69
2023/10/06 03:31:30;;;;;;;20.35;13.15;;;8.60;99.90;;;;;;7377611;19;20424;-70
2023/10/06 03:34:00;;;;;;;19.98;13.50;;;8.60;99.90;;;;;;7375492;19;20022;-69
2023/10/06 03:36:37;;;;;;;23.73;13.90;;;8.60;99.90;;;;;;7375848;19;20101;-70
2023/10/06 03:39:10;;;;;;;21.95;13.80;;;8.60;99.90;;;;;;7373421;19;20127;-70
2023/10/06 03:41:44;;;;;;;22.25;12.50;;;8.50;99.90;;;;;;7372944;19;20043;-69
2023/10/06 03:44:25;;;;;;;20.98;13.02;;;8.40;99.90;;;;;;7375354;19;20591;-69
2023/10/06 03:46:56;;;;;;;19.67;12.50;;;8.40;99.90;;;;;;7375231;19;20010;-69
2023/10/06 03:49:26;;;;;;;20.30;12.65;;;8.40;99.90;;;;;;7376246;19;20691;-69
2023/10/06 03:51:58;;;;;;;19.05;11.80;;;8.30;99.90;;;;;;7375636;19;20071;-69
2023/10/06 03:54:28;;;;;;;18.58;11.23;;;8.30;99.90;;;;;;7375465;19;20024;-69
2023/10/06 03:56:58;;;;;;;24.00;11.75;;;8.30;99.90;;;;;;7375138;19;20040;-70
2023/10/06 03:59:31;;;;;;;19.63;11.80;;;8.30;99.90;;;;;;7376663;19;20023;-69
2023/10/06 04:02:03;;;;;;;21.52;12.20;;;8.30;99.90;;;;;;7375635;19;20031;-69
2023/10/06 04:04:33;;;;;;;18.40;12.07;;;8.30;99.90;;;;;;7376340;19;20013;-69
2023/10/06 04:07:06;;;;;;;20.55;12.10;;;8.20;99.90;;;;;;7375291;19;20085;-69
2023/10/06 04:09:37;;;;;;;16.73;11.68;;;8.20;99.90;;;;;;7376511;19;20070;-69
2023/10/06 04:12:07;;;;;;;17.40;12.48;;;8.20;99.90;;;;;;7375796;19;20078;-69
2023/10/06 04:14:40;;;;;;;17.10;11.60;;;8.20;99.90;;;;;;7376078;19;20011;-68
2023/10/06 04:17:12;;;;;;;19.55;12.88;;;8.20;99.90;;;;;;7373263;19;20018;-69
2023/10/06 04:19:42;;;;;;;20.00;12.45;;;8.20;99.90;;;;;;7374580;19;20034;-69
2023/10/06 04:22:12;;;;;;;21.77;13.35;;;8.20;99.90;;;;;;7373836;19;20014;-69
2023/10/06 04:24:42;;;;;;;22.92;13.52;;;8.30;99.90;;;;;;7373535;19;20033;-69
2023/10/06 04:27:13;;;;;;;21.58;13.73;;;8.30;99.90;;;;;;7373217;19;20082;-69
2023/10/06 04:29:45;;;;;;;22.30;14.13;;;8.20;99.90;;;;;;7374963;19;20028;-69
2023/10/06 04:32:15;;;;;;;23.60;14.13;;;8.20;99.90;;;;;;7374968;19;20014;-69
2023/10/06 04:34:46;;;;;;;22.73;14.30;;;8.20;99.90;;;;;;7374120;19;20048;-68
2023/10/06 04:37:16;;;;;;;25.55;15.02;;;8.20;99.90;;;;;;7372289;19;20022;-68
2023/10/06 04:39:46;;;;;;;23.38;15.23;;;8.20;99.90;;;;;;7375610;19;20823;-68
2023/10/06 04:42:18;;;;;;;23.65;15.45;;;8.20;99.90;;;;;;7374851;19;20706;-68
2023/10/06 04:44:54;;;;;;;21.80;14.88;;;8.20;99.90;;;;;;7373722;19;20110;-69
2023/10/06 04:47:24;;;;;;;22.27;14.70;;;8.20;99.90;;;;;;7373789;19;20086;-69
2023/10/06 04:49:54;;;;;;;21.20;15.55;;;8.20;99.90;;;;;;7374713;19;20006;-69
2023/10/06 04:52:24;;;;;;;21.52;15.23;;;8.20;99.90;;;;;;7374415;19;20050;-69
2023/10/06 04:54:54;;;;;;;23.70;14.68;;;8.20;99.90;;;;;;7371832;19;20018;-69
2023/10/06 04:57:24;;;;;;;19.83;14.02;;;8.20;99.90;;;;;;7373119;19;20526;-69
2023/10/06 04:59:58;;;;;;;21.38;14.57;;;8.30;99.90;;;;;;7372789;19;20024;-69
2023/10/06 05:02:34;;;;;;;23.10;13.90;;;8.20;99.90;;;;;;7373318;19;20050;-69
2023/10/06 05:05:05;;;;;;;20.52;14.57;;;8.20;99.90;;;;;;7370325;19;20013;-69
2023/10/06 05:07:36;;;;;;;22.52;14.63;;;8.20;99.90;;;;;;7375183;19;20035;-69
2023/10/06 05:10:08;;;;;;;23.52;14.05;;;8.10;99.90;;;;;;7371934;19;20072;-68
2023/10/06 05:12:42;;;;;;;24.00;14.27;;;8.20;99.90;;;;;;7368438;19;20078;-69
2023/10/06 05:15:23;;;;;;;22.73;13.30;;;8.10;99.90;;;;;;7368662;19;20007;-69
2023/10/06 05:17:55;;;;;;;19.70;13.95;;;8.10;99.90;;;;;;7372792;19;20014;-69
2023/10/06 05:20:30;;;;;;;21.02;13.18;;;8.20;99.90;;;;;;7371037;19;20015;-69
2023/10/06 05:23:02;;;;;;;27.30;14.55;;;8.20;99.90;;;;;;7372707;19;20021;-69
2023/10/06 05:25:32;;;;;;;20.70;14.65;;;8.20;99.90;;;;;;7370975;19;20364;-68
2023/10/06 05:28:02;;;;;;;19.10;14.27;;;8.10;99.90;;;;;;7371082;19;20058;-68
2023/10/06 05:30:36;;;;;;;24.25;14.82;;;8.10;99.90;;;;;;7371692;19;20010;-69
2023/10/06 05:33:07;;;;;;;;;;;8.10;99.90;;;;;;7373472;19;20014;-70
2023/10/06 05:35:38;;;;;;;23.33;13.95;;;8.20;99.90;;;;;;7371737;19;19914;-69
2023/10/06 05:38:13;;;;;;;22.60;15.07;;;8.20;99.90;;;;;;7373989;19;20011;-69
2023/10/06 05:40:44;;;;;;;24.83;15.50;;;8.30;99.90;;;;;;7370685;19;20018;-70
2023/10/06 05:43:16;;;;;;;22.60;13.52;;;8.30;99.90;;;;;;7372163;19;20018;-69
2023/10/06 05:45:51;;;;;;;17.23;14.02;;;8.40;99.90;;;;;;7371820;19;20481;-67
2023/10/06 05:48:25;;;;;;;24.65;14.45;;;8.40;99.90;;;;;;7371906;19;20010;-69
2023/10/06 05:51:04;;;;;;;20.90;14.50;;;8.40;99.90;;;;;;7371933;19;20379;-69
2023/10/06 05:53:38;;;;;;;21.85;14.50;;;8.40;99.90;;;;;;7372587;19;20006;-69
2023/10/06 05:56:09;;;;;;;;;;;8.40;99.90;;;;;;7366794;19;20014;-68
2023/10/06 05:58:40;;;;;;;20.15;14.35;;;8.50;99.90;;;;;;7374502;19;19929;-69
2023/10/06 06:01:14;;;;;;;19.42;13.73;;;8.50;99.90;;;;;;7365960;19;20621;-70
2023/10/06 06:03:49;;;;;;;21.70;14.07;;;8.50;99.90;;;;;;7371276;19;20002;-69
2023/10/06 06:06:22;;;;;;;22.27;13.88;;;8.50;99.90;;;;;;7370771;19;20014;-69
2023/10/06 06:08:53;;;;;;;29.13;13.98;;;8.50;99.90;;;;;;7371752;19;20014;-69
2023/10/06 06:11:24;;;;;;;19.77;13.27;;;8.50;97.00;;;;;;7372231;19;20021;-68
2023/10/06 06:13:56;;;;;;;24.70;13.77;;;8.60;98.30;;;;;;7370150;19;20363;-68
2023/10/06 06:16:46;;;;;;;20.60;12.45;;;8.60;94.30;;;;;;7369673;19;20380;-69
2023/10/06 06:19:17;;;;;;;19.88;12.80;;;8.70;94.30;;;;;;7371317;19;20010;-68
2023/10/06 06:21:48;;;;;;;21.23;12.57;;;8.80;91.40;;;;;;7372148;19;20558;-69
2023/10/06 06:24:22;;;;;;;20.98;11.95;;;8.90;87.90;;;;;;7369061;19;20052;-69
2023/10/06 06:26:52;;;;;;;17.97;12.30;;;8.90;85.20;;;;;;7369679;19;20039;-69
2023/10/06 06:29:22;;;;;;;17.67;11.25;;;9.00;81.20;;;;;;7372000;19;20703;-68
2023/10/06 06:31:55;;;;;;;15.70;11.07;;;9.10;74.50;;;;;;7370317;19;20014;-69
2023/10/06 06:34:25;;;;;;;18.40;10.95;;;9.20;71.50;;;;;;7370922;19;20017;-68
2023/10/06 06:36:55;;;;;;;16.52;10.90;;;9.20;66.80;;;;;;7367654;19;20010;-69
2023/10/06 06:39:27;;;;;;;20.25;10.82;;;9.40;61.50;;;;;;7370615;19;20895;-69
2023/10/06 06:41:57;;;;;;;19.67;10.68;;;9.40;54.70;;;;;;7370135;19;20077;-69
2023/10/06 06:44:27;;;;;;;16.55;9.90;;;9.40;48.90;;;;;;7369188;19;20102;-69
2023/10/06 06:47:00;;;;;;;16.10;10.38;;;9.50;47.80;;;;;;7369202;19;20025;-68
2023/10/06 06:49:30;;;;;;;18.17;9.13;;;9.50;35.20;;;;;;7370694;19;20490;-69
2023/10/06 06:52:01;;;;;;;17.13;10.20;;;9.50;33.70;;;;;;7369814;19;20117;-69
2023/10/06 06:54:36;;;;;;;15.25;9.73;;;9.60;33.20;;;;;;7369088;19;24235;-70
2023/10/06 06:57:06;;;;;;;15.45;9.25;;;9.60;28.00;;;;;;7367492;19;20022;-69
2023/10/06 06:59:38;;;;;;;14.60;9.70;;;9.60;25.90;;;;;;7371301;19;20015;-70
2023/10/06 07:02:12;;;;;;;13.85;8.50;;;9.80;26.40;;;;;;7375315;19;20010;-70
2023/10/06 07:04:42;;;;;;;16.15;8.98;;;9.90;18.70;;;;;;7371847;19;20010;-71
2023/10/06 07:07:13;;;;;;;12.45;8.68;;;9.90;17.80;;;;;;7376698;19;20664;-69
2023/10/06 07:09:43;;;;;;;14.48;9.38;;;9.90;14.00;;;;;;7378234;19;20371;-69
2023/10/06 07:12:12;;;;;;;14.80;9.73;;;10.00;15.90;;;;;;7376668;19;20011;-69
2023/10/06 07:14:42;;;;;;;13.60;9.55;;;9.90;13.10;;;;;;7374676;19;20002;-69
2023/10/06 07:17:15;;;;;;;11.77;9.13;;;10.00;11.80;;;;;;7375339;19;20112;-69
2023/10/06 07:19:45;;;;;;;16.63;9.85;;;10.10;9.40;;;;;;7376779;19;20052;-69
2023/10/06 07:22:15;;;;;;;14.38;9.45;;;10.20;11.20;;;;;;7374906;19;20023;-69
2023/10/06 07:24:49;;;;;;;12.52;8.80;;;10.40;10.30;;;;;;7374722;19;20035;-69
2023/10/06 07:27:19;;;;;;;14.77;9.18;;;10.50;4.50;;;;;;7375969;19;20014;-69
2023/10/06 07:29:50;;;;;;;16.92;9.60;;;10.60;1.80;;;;;;7378869;19;20021;-69
2023/10/06 07:32:23;;;;;;;16.35;9.90;;;10.70;1.00;;;;;;7378051;19;20718;-68
2023/10/06 07:34:53;;;;;;;17.83;8.90;;;10.80;1.00;;;;;;7378013;19;20030;-69
2023/10/06 07:37:24;;;;;;;17.17;9.10;;;10.90;1.00;;;;;;7375557;19;20014;-69
2023/10/06 07:39:54;;;;;;;14.82;8.93;;;10.90;1.00;;;;;;7376097;19;20023;-69
2023/10/06 07:42:24;;;;;;;15.73;9.50;;;10.80;1.00;;;;;;7374405;19;20014;-70
2023/10/06 07:44:55;;;;;;;13.10;8.90;;;10.90;1.00;;;;;;7374613;19;20028;-69
2023/10/06 07:47:31;;;;;;;14.77;9.52;;;11.20;1.00;;;;;;7375523;19;20014;-69
2023/10/06 07:50:02;;;;;;;18.05;9.60;;;11.20;1.00;;;;;;7375416;19;20026;-69
2023/10/06 07:52:32;;;;;;;19.25;9.57;;;11.30;1.00;;;;;;7377557;19;20030;-69
2023/10/06 07:55:05;;;;;;;14.93;9.45;;;11.50;1.00;;;;;;7375895;19;20039;-69
2023/10/06 07:57:36;;;;;;;13.57;9.50;;;11.50;1.00;;;;;;7375638;19;20018;-70
2023/10/06 08:00:09;;;;;;;16.05;10.32;;;11.60;1.00;;;;;;7375015;19;20007;-70
2023/10/06 08:02:43;;;;;;;16.15;9.43;;;11.70;1.00;;;;;;7375502;19;20010;-68
2023/10/06 08:05:17;;;;;;;19.05;9.60;;;11.90;1.00;;;;;;7368566;19;20003;-69
2023/10/06 08:07:47;;;;;;;15.50;9.07;;;11.90;1.00;;;;;;7374664;19;20015;-69
2023/10/06 08:10:18;;;;;;;15.77;9.43;;;12.10;1.00;;;;;;7374152;19;20014;-69
2023/10/06 08:12:50;;;;;;;13.95;8.85;;;12.30;1.00;;;;;;7369462;19;20076;-69
2023/10/06 08:15:21;;;;;;;17.48;9.15;;;12.30;1.00;;;;;;7368922;19;20090;-69
2023/10/06 08:17:55;;;;;;;14.35;8.85;;;12.40;1.00;;;;;;7371950;19;20014;-69
2023/10/06 08:20:27;;;;;;;13.88;8.95;;;12.50;1.00;;;;;;7372445;19;20022;-70
2023/10/06 08:22:58;;;;;;;15.93;9.43;;;12.80;1.00;;;;;;7371679;19;20018;-69
2023/10/06 08:25:29;;;;;;;15.25;8.77;;;12.90;1.00;;;;;;7369926;19;20033;-69
2023/10/06 08:28:14;;;;;;;16.95;8.60;;;12.90;1.00;;;;;;7368974;19;20010;-69
2023/10/06 08:30:45;;;;;;;14.43;8.50;;;13.00;1.00;;;;;;7374277;19;20010;-69
2023/10/06 08:33:17;;;;;;;12.52;8.02;;;13.00;1.00;;;;;;7374016;19;20470;-70
2023/10/06 08:35:48;;;;;;;18.65;8.88;;;13.10;1.00;;;;;;7372306;19;20014;-69
2023/10/06 08:38:18;;;;;;;15.90;8.55;;;13.10;1.00;;;;;;7373834;19;20006;-69
2023/10/06 08:40:48;;;;;;;13.15;8.73;;;13.30;1.00;;;;;;7375160;19;20019;-69
2023/10/06 08:43:23;;;;;;;13.68;9.00;;;13.40;1.00;;;;;;7374335;19;20011;-69
2023/10/06 08:45:55;;;;;;;13.98;8.70;;;13.50;1.00;;;;;;7372280;19;20463;-69
2023/10/06 08:48:35;;;;;;;14.60;8.13;;;13.80;1.00;;;;;;7375354;19;20060;-70
2023/10/06 08:51:11;;;;;;;16.25;8.65;;;13.80;1.00;;;;;;7373729;19;20014;-70
2023/10/06 08:53:44;;;;;;;16.52;8.93;;;13.80;1.00;;;;;;7375593;19;20015;-70
2023/10/06 08:56:17;;;;;;;15.48;7.85;;;14.10;1.00;;;;;;7347005;19;20018;-69
2023/10/06 08:58:47;;;;;;;17.60;8.60;;;14.20;1.00;;;;;;7370578;19;20434;-69
2023/10/06 09:01:20;;;;;;;13.70;7.38;;;14.50;1.00;;;;;;7372925;19;20007;-69
2023/10/06 09:03:55;;;;;;;14.27;7.30;;;14.60;1.00;;;;;;7374241;19;20010;-69
2023/10/06 09:06:25;;;;;;;;;;;14.20;1.00;;;;;;7373540;19;20015;-69
2023/10/06 09:08:55;;;;;;;16.75;7.80;;;14.30;1.00;;;;;;7373983;19;20270;-70
2023/10/06 09:11:39;;;;;;;13.95;7.15;;;14.40;1.00;;;;;;7375040;19;20015;-70
2023/10/06 09:14:11;;;;;;;12.67;7.17;;;14.70;1.00;;;;;;7374006;19;20010;-69
2023/10/06 09:16:51;;;;;;;14.13;7.78;;;14.80;1.00;;;;;;7372790;19;20053;-69
2023/10/06 09:19:23;;;;;;;11.25;7.20;;;14.70;1.00;;;;;;7372645;19;20015;-70
2023/10/06 09:22:04;;;;;;;12.73;7.13;;;14.60;1.00;;;;;;7374214;19;20110;-70
2023/10/06 09:24:34;;;;;;;11.93;7.50;;;14.50;1.00;;;;;;7371006;19;20014;-69
2023/10/06 09:27:21;;;;;;;11.02;6.57;;;14.80;1.00;;;;;;7371944;19;20507;-70
2023/10/06 09:30:01;;;;;;;12.70;6.70;;;15.30;1.00;;;;;;6862162;19;2004046;-70
2023/10/06 09:32:31;;;;;;;12.65;6.85;;;15.40;1.00;;;;;;7372289;19;20106;-69
2023/10/06 09:35:20;;;;;;;16.95;7.35;;;15.70;1.00;;;;;;7371481;19;20640;-69
2023/10/06 09:37:51;;;;;;;15.98;7.80;;;15.70;1.00;;;;;;7372061;19;20477;-69
2023/10/06 09:40:24;;;;;;;11.32;7.28;;;15.70;1.00;;;;;;7371924;19;20014;-69
2023/10/06 09:42:54;;;;;;;13.10;7.20;;;15.90;1.00;;;;;;7373733;19;20356;-68
2023/10/06 09:45:29;;;;;;;13.15;6.60;;;16.10;1.00;;;;;;7371797;19;20022;-68
2023/10/06 09:48:02;;;;;;;16.40;6.55;;;16.10;1.00;;;;;;7362336;19;20732;-69
2023/10/06 09:50:37;;;;;;;13.50;7.00;;;16.20;1.00;;;;;;7373669;19;20071;-69
2023/10/06 09:53:14;;;;;;;15.00;6.82;;;16.20;1.00;;;;;;7371580;19;20397;-70
2023/10/06 09:55:46;;;;;;;12.00;6.20;;;16.30;1.00;;;;;;7369970;19;20076;-69
2023/10/06 09:58:17;;;;;;;16.67;7.70;;;16.50;1.00;;;;;;7371782;19;20024;-69
2023/10/06 10:00:49;;;;;;;12.20;6.55;;;16.60;1.00;;;;;;7372739;19;20014;-69
2023/10/06 10:03:20;;;;;;;11.23;6.70;;;15.80;1.00;;;;;;7370150;19;20025;-69
2023/10/06 10:05:54;;;;;;;14.10;7.15;;;16.20;1.00;;;;;;7370231;19;20011;-69
2023/10/06 10:08:25;;;;;;;12.05;7.50;;;16.50;1.00;;;;;;7372001;19;20042;-69
2023/10/06 10:10:56;;;;;;;15.35;7.93;;;16.50;1.00;;;;;;7371558;19;20011;-69
2023/10/06 10:13:43;;;;;;;19.90;7.53;;;16.40;1.00;;;;;;7348873;19;20082;-69
2023/10/06 10:16:31;;;;;;;12.45;7.10;;;16.80;1.00;;;;;;7368098;19;20110;-69
2023/10/06 10:19:07;;;;;;;12.60;6.25;;;16.90;1.00;;;;;;7372111;19;20013;-70
2023/10/06 10:21:41;;;;;;;9.43;6.35;;;16.50;1.00;;;;;;7372654;19;20031;-69
2023/10/06 10:24:13;;;;;;;15.50;7.10;;;16.70;1.00;;;;;;7367578;19;20127;-69
2023/10/06 10:27:16;;;;;;;13.15;6.88;;;17.00;1.00;;;;;;7369686;19;20015;-69
2023/10/06 10:29:47;;;;;;;13.03;6.70;;;17.00;1.00;;;;;;7370271;19;20027;-71
2023/10/06 10:32:22;;;;;;;10.35;6.70;;;17.40;1.00;;;;;;7366062;19;20031;-69
2023/10/06 10:35:12;;;;;;;10.98;7.03;;;17.10;1.00;;;;;;7351770;19;20015;-70
2023/10/06 10:38:02;;;;;;;12.13;7.20;;;17.40;1.00;;;;;;7361025;19;20505;-69
2023/10/06 10:40:49;;;;;;;12.40;6.70;;;17.50;1.00;;;;;;7360101;19;20511;-69
2023/10/06 10:43:20;;;;;;;10.25;6.20;;;17.50;1.00;;;;;;7359016;19;21473;-70
2023/10/06 10:45:50;;;;;;;12.27;6.85;;;17.40;1.00;;;;;;7360431;19;20006;-71
2023/10/06 10:48:22;;;;;;;11.25;6.97;;;17.90;1.00;;;;;;7360180;19;20534;-70
2023/10/06 10:51:00;;;;;;;12.30;6.80;;;17.70;1.00;;;;;;7361994;19;20011;-70
2023/10/06 10:53:34;;;;;;;11.43;6.90;;;17.50;1.00;;;;;;7361000;19;20588;-70
2023/10/06 10:56:06;;;;;;;12.35;6.20;;;17.90;1.00;;;;;;7360927;19;20022;-70
2023/10/06 10:58:56;;;;;;;8.68;6.00;;;17.80;1.00;;;;;;7362538;19;20125;-70
2023/10/06 11:01:31;;;;;;;10.10;5.72;;;18.10;1.00;;;;;;6851751;19;2005069;-69
2023/10/06 11:04:36;;;;;;;13.65;6.93;;;18.00;1.00;;;;;;7360747;19;20022;-69
2023/10/06 11:07:15;;;;;;;11.13;6.50;;;17.90;1.00;;;;;;6851299;19;2004744;-69
2023/10/06 11:09:52;;;;;;;16.15;6.68;;;17.80;1.00;;;;;;7359087;19;20098;-69
2023/10/06 11:12:24;;;;;;;12.85;6.65;;;18.00;1.00;;;;;;7354553;19;20696;-69
2023/10/06 11:15:02;;;;;;;13.27;6.60;;;17.90;1.00;;;;;;7360316;19;20098;-70
2023/10/06 11:17:34;;;;;;;10.82;6.50;;;17.80;1.00;;;;;;7361461;19;20010;-68
2023/10/06 11:20:12;;;;;;;11.88;6.18;;;18.00;1.00;;;;;;7358671;19;20014;-69
2023/10/06 11:22:55;;;;;;;15.07;6.22;;;18.10;1.00;;;;;;7367846;19;20010;-70
2023/10/06 11:25:29;;;;;;;12.10;6.25;;;18.40;1.00;;;;;;7372464;19;20031;-69
2023/10/06 11:28:02;;;;;;;10.27;6.03;;;18.40;1.00;;;;;;7376222;19;20010;-69
2023/10/06 11:30:33;;;;;;;9.68;5.57;;;18.40;1.00;;;;;;7376561;19;20034;-70
2023/10/06 11:33:05;;;;;;;12.98;6.30;;;18.20;1.00;;;;;;7372990;19;20015;-70
2023/10/06 11:35:36;;;;;;;11.02;5.80;;;18.10;1.00;;;;;;7376251;19;20031;-69
2023/10/06 11:38:11;;;;;;;10.45;5.80;;;18.30;1.00;;;;;;7376764;19;20010;-69
2023/10/06 11:40:44;;;;;;;11.07;5.07;;;18.40;1.00;;;;;;7378722;19;20015;-70
2023/10/06 11:43:17;;;;;;;18.85;6.63;;;18.50;1.00;;;;;;7374383;19;20015;-71
2023/10/06 11:45:48;;;;;;;10.48;6.25;;;18.50;1.00;;;;;;7374857;19;20018;-69
2023/10/06 11:48:28;;;;;;;11.55;5.93;;;18.50;1.00;;;;;;7374894;19;20010;-69
2023/10/06 11:51:06;;;;;;;10.70;5.90;;;18.60;1.00;;;;;;7375743;19;20017;-69
2023/10/06 11:53:37;;;;;;;11.18;5.40;;;18.40;1.00;;;;;;7375295;19;20102;-69
2023/10/06 11:56:12;;;;;;;11.07;5.97;;;18.70;1.00;;;;;;7373340;19;20016;-69
2023/10/06 11:58:44;;;;;;;11.93;5.65;;;18.60;1.00;;;;;;7374011;19;20011;-69
2023/10/06 12:01:32;;;;;;;13.00;6.07;;;18.60;1.00;;;;;;7373756;19;20031;-70
2023/10/06 12:04:04;;;;;;;16.23;6.82;;;18.60;1.00;;;;;;7373817;19;20014;-69
2023/10/06 12:06:42;;;;;;;9.98;5.35;;;18.60;1.00;;;;;;7375297;19;20074;-70
2023/10/06 12:09:24;;;;;;;9.73;5.22;;;18.70;1.00;;;;;;7372426;19;20011;-69
2023/10/06 12:11:59;;;;;;;8.63;5.07;;;18.80;1.00;;;;;;7375127;19;20036;-71
2023/10/06 12:14:30;;;;;;;10.45;5.65;;;18.70;1.00;;;;;;7373323;19;20431;-70
2023/10/06 12:17:01;;;;;;;8.48;5.25;;;18.90;1.00;;;;;;7373665;19;20011;-70
2023/10/06 12:19:31;;;;;;;13.57;5.32;;;18.70;1.00;;;;;;7374270;19;20089;-70
2023/10/06 12:22:02;;;;;;;17.20;5.78;;;18.60;1.00;;;;;;7376169;19;20018;-69
2023/10/06 12:24:33;;;;;;;11.65;5.38;;;18.70;1.00;;;;;;7374976;19;20017;-70
2023/10/06 12:27:05;;;;;;;10.75;5.22;;;19.00;1.00;;;;;;7374702;19;20363;-69
2023/10/06 12:29:35;;;;;;;12.88;5.53;;;19.00;1.00;;;;;;7377498;19;20510;-70
2023/10/06 12:32:05;;;;;;;10.00;5.28;;;18.90;1.00;;;;;;7374938;19;20031;-70
2023/10/06 12:34:36;;;;;;;9.73;5.38;;;18.70;1.00;;;;;;7376193;19;20011;-69
2023/10/06 12:37:07;;;;;;;10.15;5.32;;;18.90;1.00;;;;;;7372735;19;20013;-70
2023/10/06 12:39:37;;;;;;;11.48;5.53;;;18.90;1.00;;;;;;7375723;19;20016;-70
2023/10/06 12:42:11;;;;;;;11.90;5.70;;;19.00;1.00;;;;;;7373634;19;20373;-70
2023/10/06 12:44:42;;;;;;;12.60;5.53;;;19.10;1.00;;;;;;7374733;19;20026;-71
2023/10/06 12:47:13;;;;;;;9.93;5.40;;;19.00;1.00;;;;;;7372122;19;20030;-70
2023/10/06 12:49:43;;;;;;;15.23;5.93;;;19.10;1.00;;;;;;7374991;19;20010;-69
2023/10/06 12:52:14;;;;;;;11.48;5.53;;;19.00;1.00;;;;;;7373310;19;20581;-69
2023/10/06 12:54:44;;;;;;;11.85;6.63;;;18.90;1.00;;;;;;7374740;19;20014;-70
2023/10/06 12:57:16;;;;;;;12.25;5.28;;;19.00;1.00;;;;;;7372637;19;20596;-70
2023/10/06 12:59:48;;;;;;;9.48;5.68;;;19.10;1.00;;;;;;7372301;19;20010;-71
2023/10/06 13:02:24;;;;;;;14.90;4.32;;;19.20;1.00;;;;;;7374018;19;20073;-71
2023/10/06 13:04:57;;;;;;;10.75;4.95;;;19.20;1.00;;;;;;7372367;19;20010;-70
2023/10/06 13:07:31;;;;;;;13.15;5.00;;;19.40;1.00;;;;;;7371677;19;20464;-70
2023/10/06 13:10:02;;;;;;;9.00;4.63;;;19.40;1.00;;;;;;7374354;19;20601;-70
2023/10/06 13:12:39;;;;;;;8.75;4.80;;;19.30;1.00;;;;;;7374599;19;20026;-71
2023/10/06 13:15:12;;;;;;;9.10;5.00;;;19.40;1.00;;;;;;7372856;19;20012;-70
2023/10/06 13:17:43;;;;;;;9.63;5.25;;;19.40;1.00;;;;;;7372379;19;20101;-71